Terminal Aerodrome Forecast
Issued by NWS

Current Version | Previous Version | Text Only | Print | Product List | Glossary On
Versions: 1 2 3 4 5 6 7 8 9 10 11 12 13
000
FTAK31 PAJN 262300
TAFAWG
TAF
PAWG 262338Z 2700/2724 17010G15KT P6SM VCSH SCT030 BKN040 OVC060
     FM270300 VRB06KT P6SM -SHRA SCT020 OVC040
     FM270900 13010KT P6SM -SHRA SCT020 BKN035 OVC050
     FM271800 13010KT 6SM -RA SCT020 OVC040
      AMD LTD TO CLD VIS AND WIND 2706/2715=

USA.gov is the U.S. government's official web portal to all federal, state and local government web resources and services.